x

Nantucket Sound (44020) Wave Buoy

11:50pm - Thu 28th May 2015 All times are EDT. -4 hours from GMT.

  • Sig Wave height 1.0ft
  • Swell Direction
  • Peak Period 3s
  • Average Period 3s
  • Wind
    16mph, 18mph gusts
  • Sea Temp 60°f
  • Air Temp 61°f
  • Sea Pressure 1022.8mb
  • Nantucket Sound
  • Nantucket Sound

More Historic Weather Station data

Upgrade to MSW Pro to gain access to the past 30 days of data for over 8000 Wavebouys and Weather Stations around the globe.

Join Pro

Comparision Forecast

View Surf forecast
   
Thu 05/28 11:50pm 1ft 3s 3s 16 18 mph 1022.8mb 60f 61f
10:50pm 1.3ft 3s 3s 11 13 mph 1023.1mb 60f 61f
9:50pm 1.6ft 3s 3s 18 20 mph 1022.2mb 60f 62f
8:50pm 1.3ft 3s 3s 18 20 mph 1021.7mb 60f 62f
7:50pm 1.3ft 3s 3s 16 18 mph 1021.6mb 60f 61f
6:50pm 2ft 3s 3s 16 18 mph 1021.5mb 60f 62f
5:50pm 2ft 3s 3s 20 22 mph 1020.4mb 60f 62f
4:50pm 2ft 3s 3s 22 25 mph 1020.5mb 60f 62f
3:50pm 2.5ft 3s 3s 20 25 mph 1021.1mb 60f 62f
2:50pm 2ft 3s 3s 20 25 mph 1021.5mb 60f 63f
1:50pm 2.5ft 3s 3s 20 22 mph 1022mb 60f 63f
12:50pm 2ft 3s 3s 20 25 mph 1021.8mb 60f 63f
11:50am 2ft 3s 3s 18 22 mph 1022.5mb 60f 63f
10:50am 2ft 3s 3s 20 25 mph 1022.6mb 60f 63f
9:50am 2ft 3s 3s 18 22 mph 1022.8mb 60f 62f
8:50am 2ft 3s 3s 18 20 mph 1022.8mb 60f 62f
7:50am 2ft 3s 3s 20 25 mph 1022.4mb 60f 62f
6:50am 2ft 3s 3s 20 25 mph 1022.2mb 60f 62f
5:50am 2ft 3s 3s 20 22 mph 1022.1mb 60f 62f
4:50am 2ft 3s 3s 20 22 mph 1021.6mb 60f 62f
3:50am 2ft 3s 3s 20 25 mph 1021.3mb 59f 62f
2:50am 1.6ft 3s 3s 20 25 mph 1021.5mb 59f 62f
1:50am 1.6ft 3s 3s 22 25 mph 1021.9mb 60f 62f
12:50am 1.6ft 3s 3s 20 22 mph 1022.3mb 60f 62f
Wed 05/27 11:50pm 1.6ft 3s  -  18 20 mph 1022.9mb 60f 62f
10:50pm 2ft 3s 3s 18 22 mph 1022.9mb 59f 62f
9:50pm 2ft 3s 3s 20 22 mph 1022.5mb 60f 62f
8:50pm 2ft 4s 3s 20 22 mph 1022.6mb 60f 62f
7:50pm 2ft 4s 3s 18 22 mph 1022.1mb 60f 62f
6:50pm 2ft 3s 3s 20 25 mph 1021.6mb 60f 62f
5:50pm 2ft 3s 3s 20 22 mph 1021.8mb 60f 63f
4:50pm 2ft 3s 3s 22 27 mph 1021.7mb 60f 62f
3:50pm 2.5ft 3s 3s 22 25 mph 1022.4mb 60f 64f
2:50pm 2.5ft 4s 3s 25 29 mph 1022.6mb 59f 64f
1:50pm 2.5ft 3s 3s 22 27 mph 1022.9mb 59f 63f
12:50pm 2.5ft 3s 3s 25 29 mph 1023.3mb 59f 64f
11:50am 2.5ft 3s 3s 22 27 mph 1023.4mb 59f 63f
10:50am 2.5ft 3s 3s 22 25 mph 1023.5mb 59f 63f
9:50am 2.5ft 4s 3s 20 25 mph 1023.5mb 59f 62f
8:50am 2ft 3s 3s 20 22 mph 1023.6mb 59f 62f
7:50am 2ft 3s 3s 20 25 mph 1023.4mb 59f 62f
6:50am 2ft 3s 3s 20 22 mph 1023.5mb 59f 62f
5:50am 1.6ft 3s 3s 20 25 mph 1023.3mb 59f 61f
4:50am 1ft 3s 3s 18 20 mph 1023mb 59f 61f
3:50am 1.3ft 3s 3s 18 20 mph 1022.9mb 59f 60f
2:50am 1.6ft 3s 3s 16 18 mph 1023.2mb 58f 60f
1:50am 2ft 3s 3s 16 18 mph 1023.4mb 58f 61f
12:50am 2ft 3s 3s 16 20 mph 1023.4mb 59f 61f
Tue 05/26 11:50pm 1.6ft 3s 3s 20 22 mph 1023.1mb 59f 61f
10:50pm 1.6ft 3s 3s 18 22 mph 1022.7mb 59f 61f
9:50pm 1.6ft 4s 3s 18 20 mph 1022.7mb 59f 60f
8:50pm 2ft 4s 3s 20 25 mph 1022.2mb 59f 60f
7:50pm 2ft 4s 4s 20 25 mph 1022mb 59f 61f
6:50pm 2.5ft 4s 3s 22 25 mph 1021.9mb 59f 61f
5:50pm 2.5ft 3s 3s 18 20 mph 1022.1mb 59f 61f
4:50pm 2ft 3s 3s 18 22 mph 1022.2mb 59f 61f
3:50pm 2ft 3s 3s 20 25 mph 1022.4mb 59f 61f
2:50pm 2.5ft 3s 3s 20 25 mph 1022.7mb 59f 60f
1:50pm 2.5ft 3s 3s 22 27 mph 1022.9mb 58f 61f
12:50pm 2.5ft 4s 3s 22 27 mph 1023.4mb 58f 61f
11:50am 2.5ft 4s 3s 22 27 mph 1023.2mb 58f 61f
10:50am 2.5ft 4s 3s 22 29 mph 1023.4mb 58f 61f
9:50am 2.5ft 3s 3s 25 29 mph 1023.5mb 58f 61f
8:50am 2.5ft 4s 4s 22 29 mph 1023.7mb 58f 61f
7:50am 2.5ft 4s 4s 22 27 mph 1023.7mb 58f 61f
6:50am 2.5ft 4s 3s 25 29 mph 1023.1mb 58f 61f
5:50am 2.5ft 4s 3s 22 27 mph 1023.2mb 58f 61f
4:50am 2.5ft 3s 3s 20 22 mph 1023.2mb 58f 60f
3:50am 2ft 3s 3s 25 27 mph 1022.7mb 58f 61f
2:50am 2.5ft 3s 3s 22 27 mph 1022.7mb 58f 60f
1:50am 2.5ft 3s 3s 22 25 mph 1023.3mb 57f 60f
12:50am 2.5ft 3s 3s 20 25 mph 1023.6mb 57f 60f
Mon 05/25 11:50pm 1.6ft 3s 3s 22 27 mph 1023.5mb 58f 61f
10:50pm 1.3ft 3s 3s 20 25 mph 1023.6mb 58f 60f
9:50pm 1.6ft 3s 3s 18 22 mph 1024mb 57f 60f
8:50pm 1.6ft 3s 3s 18 22 mph 1023.6mb 57f 60f
7:50pm 1.3ft 3s 3s 20 25 mph 1023.5mb 58f 60f
6:50pm 1.3ft 3s 3s 18 20 mph 1023.7mb 58f 59f
5:50pm 1.3ft 3s 3s 18 22 mph 1023.8mb 58f 59f
4:50pm 1.3ft 3s 3s 18 22 mph 1024.1mb 58f 60f
3:50pm 1.3ft 2s 3s 16 18 mph 1024.4mb 58f 59f
2:50pm 1.3ft 3s 3s 16 18 mph 1024.8mb 58f 59f
1:50pm 1.3ft 3s 3s 16 20 mph 1025mb 58f 59f
12:50pm 1.6ft 3s 3s 16 20 mph 1025.8mb 57f 59f
11:50am 1.6ft 3s 3s 16 18 mph 1025.7mb 57f 59f
10:50am 1.3ft 3s 3s 18 20 mph 1025.5mb 57f 58f
9:50am 1.3ft 3s 3s 18 22 mph 1025.4mb 57f 58f
8:50am 1.3ft 3s 3s 16 18 mph 1025.5mb 56f 58f
7:50am 1.3ft 3s 3s 16 18 mph 1025.5mb 56f 58f
6:50am 1.3ft 3s 3s 16 18 mph 1025.4mb 57f 58f
5:50am 1.3ft 3s 3s 18 20 mph 1025mb 58f 58f